sensor_id;sensor_type;location;lat;lon;timestamp;temperature;humidity
42109;DHT22;27765;51.228;7.626;2022-07-29T00:01:27;16.40;99.90
42109;DHT22;27765;51.228;7.626;2022-07-29T00:04:13;16.40;99.90
42109;DHT22;27765;51.228;7.626;2022-07-29T00:06:59;16.40;99.90
42109;DHT22;27765;51.228;7.626;2022-07-29T00:09:45;16.40;99.90
42109;DHT22;27765;51.228;7.626;2022-07-29T00:12:31;16.30;99.90
42109;DHT22;27765;51.228;7.626;2022-07-29T00:15:17;16.30;99.90
42109;DHT22;27765;51.228;7.626;2022-07-29T00:18:03;16.30;99.90
42109;DHT22;27765;51.228;7.626;2022-07-29T00:20:49;16.30;99.90
42109;DHT22;27765;51.228;7.626;2022-07-29T00:23:35;16.30;99.90
42109;DHT22;27765;51.228;7.626;2022-07-29T00:26:21;16.30;99.90
42109;DHT22;27765;51.228;7.626;2022-07-29T00:29:07;16.20;99.90
42109;DHT22;27765;51.228;7.626;2022-07-29T00:31:53;16.20;99.90
42109;DHT22;27765;51.228;7.626;2022-07-29T00:34:39;16.30;99.90
42109;DHT22;27765;51.228;7.626;2022-07-29T00:37:44;16.20;99.90
42109;DHT22;27765;51.228;7.626;2022-07-29T00:40:30;16.20;99.90
42109;DHT22;27765;51.228;7.626;2022-07-29T00:43:17;16.20;99.90
42109;DHT22;27765;51.228;7.626;2022-07-29T00:46:03;16.20;99.90
42109;DHT22;27765;51.228;7.626;2022-07-29T00:48:49;16.20;99.90
42109;DHT22;27765;51.228;7.626;2022-07-29T00:51:36;16.20;99.90
42109;DHT22;27765;51.228;7.626;2022-07-29T00:54:22;16.10;99.90
42109;DHT22;27765;51.228;7.626;2022-07-29T00:57:08;16.20;99.90
42109;DHT22;27765;51.228;7.626;2022-07-29T00:59:54;16.20;99.90
42109;DHT22;27765;51.228;7.626;2022-07-29T01:02:41;16.20;99.90
42109;DHT22;27765;51.228;7.626;2022-07-29T01:05:28;16.20;99.90
42109;DHT22;27765;51.228;7.626;2022-07-29T01:08:15;16.20;99.90
42109;DHT22;27765;51.228;7.626;2022-07-29T01:11:01;16.30;99.90
42109;DHT22;27765;51.228;7.626;2022-07-29T01:13:48;16.30;99.90
42109;DHT22;27765;51.228;7.626;2022-07-29T01:16:49;16.30;99.90
42109;DHT22;27765;51.228;7.626;2022-07-29T01:29:32;16.30;99.90
42109;DHT22;27765;51.228;7.626;2022-07-29T01:32:24;16.20;99.90
42109;DHT22;27765;51.228;7.626;2022-07-29T01:35:19;16.20;99.90
42109;DHT22;27765;51.228;7.626;2022-07-29T01:38:21;16.10;99.90
42109;DHT22;27765;51.228;7.626;2022-07-29T01:41:15;16.00;99.90
42109;DHT22;27765;51.228;7.626;2022-07-29T01:44:11;15.90;99.90
42109;DHT22;27765;51.228;7.626;2022-07-29T01:47:02;16.00;99.90
42109;DHT22;27765;51.228;7.626;2022-07-29T01:49:52;16.00;99.90
42109;DHT22;27765;51.228;7.626;2022-07-29T01:53:00;16.00;99.90
42109;DHT22;27765;51.228;7.626;2022-07-29T01:55:48;16.00;99.90
42109;DHT22;27765;51.228;7.626;2022-07-29T01:58:36;16.10;99.90
42109;DHT22;27765;51.228;7.626;2022-07-29T02:01:24;16.00;99.90
42109;DHT22;27765;51.228;7.626;2022-07-29T02:04:13;16.10;99.90
42109;DHT22;27765;51.228;7.626;2022-07-29T02:07:04;16.00;99.90
42109;DHT22;27765;51.228;7.626;2022-07-29T02:09:52;16.10;99.90
42109;DHT22;27765;51.228;7.626;2022-07-29T02:12:39;16.10;99.90
42109;DHT22;27765;51.228;7.626;2022-07-29T02:15:28;16.10;99.90
42109;DHT22;27765;51.228;7.626;2022-07-29T02:18:17;16.10;99.90
42109;DHT22;27765;51.228;7.626;2022-07-29T02:21:04;16.20;99.90
42109;DHT22;27765;51.228;7.626;2022-07-29T02:23:52;16.20;99.90
42109;DHT22;27765;51.228;7.626;2022-07-29T02:26:40;16.30;99.90
42109;DHT22;27765;51.228;7.626;2022-07-29T02:29:28;16.30;99.90
42109;DHT22;27765;51.228;7.626;2022-07-29T02:32:16;16.40;99.90
42109;DHT22;27765;51.228;7.626;2022-07-29T02:35:03;16.40;99.90
42109;DHT22;27765;51.228;7.626;2022-07-29T02:37:50;16.40;99.90
42109;DHT22;27765;51.228;7.626;2022-07-29T02:41:03;16.40;99.90
42109;DHT22;27765;51.228;7.626;2022-07-29T02:43:54;16.50;99.90
42109;DHT22;27765;51.228;7.626;2022-07-29T02:46:50;16.50;99.90
42109;DHT22;27765;51.228;7.626;2022-07-29T02:49:43;16.50;99.90
42109;DHT22;27765;51.228;7.626;2022-07-29T02:52:37;16.50;99.90
42109;DHT22;27765;51.228;7.626;2022-07-29T02:58:58;16.50;99.90
42109;DHT22;27765;51.228;7.626;2022-07-29T03:01:45;16.50;99.90
42109;DHT22;27765;51.228;7.626;2022-07-29T03:04:32;16.50;99.90
42109;DHT22;27765;51.228;7.626;2022-07-29T03:07:20;16.40;99.90
42109;DHT22;27765;51.228;7.626;2022-07-29T03:10:07;16.40;99.90
42109;DHT22;27765;51.228;7.626;2022-07-29T03:12:55;16.40;99.90
42109;DHT22;27765;51.228;7.626;2022-07-29T03:15:45;16.40;99.90
42109;DHT22;27765;51.228;7.626;2022-07-29T03:18:33;16.40;99.90
42109;DHT22;27765;51.228;7.626;2022-07-29T03:21:19;16.30;99.90
42109;DHT22;27765;51.228;7.626;2022-07-29T03:24:05;16.30;99.90
42109;DHT22;27765;51.228;7.626;2022-07-29T03:26:51;16.30;99.90
42109;DHT22;27765;51.228;7.626;2022-07-29T03:29:37;16.20;99.90
42109;DHT22;27765;51.228;7.626;2022-07-29T03:32:23;16.20;99.90
42109;DHT22;27765;51.228;7.626;2022-07-29T03:35:09;16.20;99.90
42109;DHT22;27765;51.228;7.626;2022-07-29T03:37:55;16.10;99.90
42109;DHT22;27765;51.228;7.626;2022-07-29T03:40:51;16.10;99.90
42109;DHT22;27765;51.228;7.626;2022-07-29T03:43:38;16.10;99.90
42109;DHT22;27765;51.228;7.626;2022-07-29T03:46:28;16.10;99.90
42109;DHT22;27765;51.228;7.626;2022-07-29T03:49:16;16.10;99.90
42109;DHT22;27765;51.228;7.626;2022-07-29T03:52:05;16.00;99.90
42109;DHT22;27765;51.228;7.626;2022-07-29T03:54:52;16.10;99.90
42109;DHT22;27765;51.228;7.626;2022-07-29T03:57:39;16.10;99.90
42109;DHT22;27765;51.228;7.626;2022-07-29T04:00:26;16.20;99.90
42109;DHT22;27765;51.228;7.626;2022-07-29T04:03:13;16.20;99.90
42109;DHT22;27765;51.228;7.626;2022-07-29T04:06:01;16.20;99.90
42109;DHT22;27765;51.228;7.626;2022-07-29T04:08:47;16.10;99.90
42109;DHT22;27765;51.228;7.626;2022-07-29T04:11:33;16.00;99.90
42109;DHT22;27765;51.228;7.626;2022-07-29T04:14:20;15.90;99.90
42109;DHT22;27765;51.228;7.626;2022-07-29T04:17:05;15.90;99.90
42109;DHT22;27765;51.228;7.626;2022-07-29T04:19:51;15.80;99.90
42109;DHT22;27765;51.228;7.626;2022-07-29T04:22:37;15.70;99.90
42109;DHT22;27765;51.228;7.626;2022-07-29T04:25:23;15.70;99.90
42109;DHT22;27765;51.228;7.626;2022-07-29T04:28:10;15.60;99.90
42109;DHT22;27765;51.228;7.626;2022-07-29T04:30:56;15.60;99.90
42109;DHT22;27765;51.228;7.626;2022-07-29T04:33:41;15.60;99.90
42109;DHT22;27765;51.228;7.626;2022-07-29T04:36:27;15.70;99.90
42109;DHT22;27765;51.228;7.626;2022-07-29T04:39:13;15.70;99.90
42109;DHT22;27765;51.228;7.626;2022-07-29T04:41:59;15.70;99.90
42109;DHT22;27765;51.228;7.626;2022-07-29T04:44:45;15.80;99.90
42109;DHT22;27765;51.228;7.626;2022-07-29T04:47:31;15.70;99.90
42109;DHT22;27765;51.228;7.626;2022-07-29T04:50:17;15.80;99.90
42109;DHT22;27765;51.228;7.626;2022-07-29T04:53:03;15.90;99.90
42109;DHT22;27765;51.228;7.626;2022-07-29T04:55:49;15.90;99.90
42109;DHT22;27765;51.228;7.626;2022-07-29T04:58:35;16.00;99.90
42109;DHT22;27765;51.228;7.626;2022-07-29T05:01:21;16.10;99.90
42109;DHT22;27765;51.228;7.626;2022-07-29T05:04:07;16.20;99.90
42109;DHT22;27765;51.228;7.626;2022-07-29T05:06:53;16.30;99.90
42109;DHT22;27765;51.228;7.626;2022-07-29T05:09:39;16.30;99.90
42109;DHT22;27765;51.228;7.626;2022-07-29T05:12:26;16.30;99.90
42109;DHT22;27765;51.228;7.626;2022-07-29T05:15:13;16.40;99.90
42109;DHT22;27765;51.228;7.626;2022-07-29T05:17:59;16.50;99.90
42109;DHT22;27765;51.228;7.626;2022-07-29T05:20:45;16.50;99.90
42109;DHT22;27765;51.228;7.626;2022-07-29T05:23:31;16.70;99.90
42109;DHT22;27765;51.228;7.626;2022-07-29T05:25:59;16.70;99.90
42109;DHT22;27765;51.228;7.626;2022-07-29T05:28:25;16.70;99.90
42109;DHT22;27765;51.228;7.626;2022-07-29T05:30:51;16.70;99.90
42109;DHT22;27765;51.228;7.626;2022-07-29T05:33:17;16.70;99.90
42109;DHT22;27765;51.228;7.626;2022-07-29T05:35:43;16.70;99.90
42109;DHT22;27765;51.228;7.626;2022-07-29T05:38:08;16.70;99.90
42109;DHT22;27765;51.228;7.626;2022-07-29T05:40:34;16.90;99.90
42109;DHT22;27765;51.228;7.626;2022-07-29T05:43:00;16.90;99.90
42109;DHT22;27765;51.228;7.626;2022-07-29T05:45:25;17.00;99.90
42109;DHT22;27765;51.228;7.626;2022-07-29T05:47:51;17.10;99.90
42109;DHT22;27765;51.228;7.626;2022-07-29T05:50:18;17.10;99.90
42109;DHT22;27765;51.228;7.626;2022-07-29T05:53:02;17.10;99.90
42109;DHT22;27765;51.228;7.626;2022-07-29T05:55:50;17.20;99.90
42109;DHT22;27765;51.228;7.626;2022-07-29T05:58:34;17.20;99.90
42109;DHT22;27765;51.228;7.626;2022-07-29T06:01:18;17.20;99.90
42109;DHT22;27765;51.228;7.626;2022-07-29T06:03:44;17.20;99.90
42109;DHT22;27765;51.228;7.626;2022-07-29T06:06:10;17.20;99.90
42109;DHT22;27765;51.228;7.626;2022-07-29T06:08:36;17.10;99.90
42109;DHT22;27765;51.228;7.626;2022-07-29T06:11:04;17.20;99.90
42109;DHT22;27765;51.228;7.626;2022-07-29T06:13:30;17.20;99.90
42109;DHT22;27765;51.228;7.626;2022-07-29T06:15:57;17.20;99.90
42109;DHT22;27765;51.228;7.626;2022-07-29T06:18:23;17.20;99.90
42109;DHT22;27765;51.228;7.626;2022-07-29T06:20:53;17.20;99.90
42109;DHT22;27765;51.228;7.626;2022-07-29T06:23:20;17.20;99.90
42109;DHT22;27765;51.228;7.626;2022-07-29T06:25:46;17.30;99.90
42109;DHT22;27765;51.228;7.626;2022-07-29T06:28:12;17.40;99.90
42109;DHT22;27765;51.228;7.626;2022-07-29T06:30:39;17.30;99.90
42109;DHT22;27765;51.228;7.626;2022-07-29T06:33:05;17.30;99.90
42109;DHT22;27765;51.228;7.626;2022-07-29T06:35:35;17.50;99.90
42109;DHT22;27765;51.228;7.626;2022-07-29T06:38:04;17.60;99.90
42109;DHT22;27765;51.228;7.626;2022-07-29T06:40:30;17.70;99.90
42109;DHT22;27765;51.228;7.626;2022-07-29T06:43:15;17.80;99.90
42109;DHT22;27765;51.228;7.626;2022-07-29T06:45:41;17.80;99.90
42109;DHT22;27765;51.228;7.626;2022-07-29T06:48:09;18.00;99.90
42109;DHT22;27765;51.228;7.626;2022-07-29T06:50:35;18.10;99.90
42109;DHT22;27765;51.228;7.626;2022-07-29T06:53:01;18.20;99.90
42109;DHT22;27765;51.228;7.626;2022-07-29T06:55:27;18.20;99.90
42109;DHT22;27765;51.228;7.626;2022-07-29T06:57:53;18.10;99.90
42109;DHT22;27765;51.228;7.626;2022-07-29T07:00:19;18.20;99.90
42109;DHT22;27765;51.228;7.626;2022-07-29T07:02:45;18.10;99.90
42109;DHT22;27765;51.228;7.626;2022-07-29T07:05:11;18.10;99.90
42109;DHT22;27765;51.228;7.626;2022-07-29T07:07:37;18.20;99.90
42109;DHT22;27765;51.228;7.626;2022-07-29T07:10:04;18.30;99.90
42109;DHT22;27765;51.228;7.626;2022-07-29T07:12:30;18.50;99.90
42109;DHT22;27765;51.228;7.626;2022-07-29T07:14:56;18.70;99.90
42109;DHT22;27765;51.228;7.626;2022-07-29T07:17:21;18.90;99.90
42109;DHT22;27765;51.228;7.626;2022-07-29T07:19:47;19.00;99.90
42109;DHT22;27765;51.228;7.626;2022-07-29T07:22:13;19.30;99.90
42109;DHT22;27765;51.228;7.626;2022-07-29T07:24:39;19.10;99.90
42109;DHT22;27765;51.228;7.626;2022-07-29T07:27:05;19.00;99.90
42109;DHT22;27765;51.228;7.626;2022-07-29T07:29:31;19.10;99.90
42109;DHT22;27765;51.228;7.626;2022-07-29T07:31:57;19.40;99.90
42109;DHT22;27765;51.228;7.626;2022-07-29T07:34:23;19.60;99.90
42109;DHT22;27765;51.228;7.626;2022-07-29T07:36:49;19.90;99.90
42109;DHT22;27765;51.228;7.626;2022-07-29T07:39:15;20.10;99.90
42109;DHT22;27765;51.228;7.626;2022-07-29T07:41:41;20.40;99.90
42109;DHT22;27765;51.228;7.626;2022-07-29T07:44:07;20.40;99.90
42109;DHT22;27765;51.228;7.626;2022-07-29T07:46:33;20.40;99.90
42109;DHT22;27765;51.228;7.626;2022-07-29T07:48:59;20.80;99.90
42109;DHT22;27765;51.228;7.626;2022-07-29T07:51:25;20.80;99.90
42109;DHT22;27765;51.228;7.626;2022-07-29T07:53:51;21.00;99.90
42109;DHT22;27765;51.228;7.626;2022-07-29T07:56:17;21.40;99.90
42109;DHT22;27765;51.228;7.626;2022-07-29T07:58:43;21.70;99.90
42109;DHT22;27765;51.228;7.626;2022-07-29T08:01:09;22.00;99.60
42109;DHT22;27765;51.228;7.626;2022-07-29T08:03:36;22.70;98.10
42109;DHT22;27765;51.228;7.626;2022-07-29T08:06:03;23.20;97.60
42109;DHT22;27765;51.228;7.626;2022-07-29T08:08:29;23.80;97.40
42109;DHT22;27765;51.228;7.626;2022-07-29T08:11:03;24.10;96.20
42109;DHT22;27765;51.228;7.626;2022-07-29T08:13:30;24.70;96.10
42109;DHT22;27765;51.228;7.626;2022-07-29T08:15:57;25.00;95.50
42109;DHT22;27765;51.228;7.626;2022-07-29T08:18:27;25.40;95.30
42109;DHT22;27765;51.228;7.626;2022-07-29T08:20:53;26.40;93.10
42109;DHT22;27765;51.228;7.626;2022-07-29T08:23:20;26.30;94.00
42109;DHT22;27765;51.228;7.626;2022-07-29T08:25:46;25.70;94.10
42109;DHT22;27765;51.228;7.626;2022-07-29T08:28:12;25.10;94.30
42109;DHT22;27765;51.228;7.626;2022-07-29T08:30:38;24.50;93.70
42109;DHT22;27765;51.228;7.626;2022-07-29T08:33:04;24.10;94.80
42109;DHT22;27765;51.228;7.626;2022-07-29T08:35:31;23.80;95.20
42109;DHT22;27765;51.228;7.626;2022-07-29T08:37:57;24.60;94.50
42109;DHT22;27765;51.228;7.626;2022-07-29T08:40:23;26.90;92.00
42109;DHT22;27765;51.228;7.626;2022-07-29T08:42:50;29.20;83.90
42109;DHT22;27765;51.228;7.626;2022-07-29T08:45:16;31.60;77.00
42109;DHT22;27765;51.228;7.626;2022-07-29T08:47:45;32.90;68.10
42109;DHT22;27765;51.228;7.626;2022-07-29T08:50:11;33.00;63.10
42109;DHT22;27765;51.228;7.626;2022-07-29T08:52:40;33.80;60.20
42109;DHT22;27765;51.228;7.626;2022-07-29T08:55:08;34.60;58.10
42109;DHT22;27765;51.228;7.626;2022-07-29T08:57:35;34.40;54.90
42109;DHT22;27765;51.228;7.626;2022-07-29T09:00:03;34.10;55.60
42109;DHT22;27765;51.228;7.626;2022-07-29T09:02:35;34.60;53.30
42109;DHT22;27765;51.228;7.626;2022-07-29T09:05:01;35.20;52.30
42109;DHT22;27765;51.228;7.626;2022-07-29T09:07:28;35.10;52.30
42109;DHT22;27765;51.228;7.626;2022-07-29T09:09:54;35.30;50.20
42109;DHT22;27765;51.228;7.626;2022-07-29T09:12:20;35.00;49.30
42109;DHT22;27765;51.228;7.626;2022-07-29T09:14:48;34.60;49.20
42109;DHT22;27765;51.228;7.626;2022-07-29T09:17:14;35.30;48.80
42109;DHT22;27765;51.228;7.626;2022-07-29T09:19:42;35.20;48.70
42109;DHT22;27765;51.228;7.626;2022-07-29T09:22:08;35.30;47.80
42109;DHT22;27765;51.228;7.626;2022-07-29T09:24:45;34.70;48.60
42109;DHT22;27765;51.228;7.626;2022-07-29T09:27:22;33.80;49.30
42109;DHT22;27765;51.228;7.626;2022-07-29T09:30:20;33.00;48.60
42109;DHT22;27765;51.228;7.626;2022-07-29T09:32:55;33.00;49.90
42109;DHT22;27765;51.228;7.626;2022-07-29T09:35:24;32.80;50.30
42109;DHT22;27765;51.228;7.626;2022-07-29T09:37:50;32.80;49.70
42109;DHT22;27765;51.228;7.626;2022-07-29T09:40:19;33.30;49.90
42109;DHT22;27765;51.228;7.626;2022-07-29T09:42:46;33.10;50.40
42109;DHT22;27765;51.228;7.626;2022-07-29T09:45:25;33.20;48.00
42109;DHT22;27765;51.228;7.626;2022-07-29T09:47:56;33.10;47.90
42109;DHT22;27765;51.228;7.626;2022-07-29T09:50:37;32.80;48.50
42109;DHT22;27765;51.228;7.626;2022-07-29T09:53:03;33.00;48.40
42109;DHT22;27765;51.228;7.626;2022-07-29T09:55:29;33.60;47.20
42109;DHT22;27765;51.228;7.626;2022-07-29T09:58:15;32.70;47.90
42109;DHT22;27765;51.228;7.626;2022-07-29T10:00:45;32.70;49.70
42109;DHT22;27765;51.228;7.626;2022-07-29T10:03:12;32.30;49.00
42109;DHT22;27765;51.228;7.626;2022-07-29T10:05:39;32.10;51.30
42109;DHT22;27765;51.228;7.626;2022-07-29T10:08:06;31.40;49.30
42109;DHT22;27765;51.228;7.626;2022-07-29T10:10:35;30.70;50.50
42109;DHT22;27765;51.228;7.626;2022-07-29T10:13:07;30.10;51.90
42109;DHT22;27765;51.228;7.626;2022-07-29T10:15:35;29.20;53.80
42109;DHT22;27765;51.228;7.626;2022-07-29T10:18:07;28.30;55.00
42109;DHT22;27765;51.228;7.626;2022-07-29T10:20:34;27.90;54.70
42109;DHT22;27765;51.228;7.626;2022-07-29T10:23:00;27.50;57.70
42109;DHT22;27765;51.228;7.626;2022-07-29T10:25:27;27.30;56.80
42109;DHT22;27765;51.228;7.626;2022-07-29T10:27:53;27.00;57.00
42109;DHT22;27765;51.228;7.626;2022-07-29T10:30:22;26.60;57.30
42109;DHT22;27765;51.228;7.626;2022-07-29T10:47:03;25.70;64.50
42109;DHT22;27765;51.228;7.626;2022-07-29T10:49:29;25.50;65.10
42109;DHT22;27765;51.228;7.626;2022-07-29T10:51:59;25.40;67.30
42109;DHT22;27765;51.228;7.626;2022-07-29T10:59:50;25.20;72.50
42109;DHT22;27765;51.228;7.626;2022-07-29T11:05:07;24.90;76.30
42109;DHT22;27765;51.228;7.626;2022-07-29T11:07:35;24.70;79.80
42109;DHT22;27765;51.228;7.626;2022-07-29T11:15:12;24.50;81.30
42109;DHT22;27765;51.228;7.626;2022-07-29T11:20:45;24.80;83.10
42109;DHT22;27765;51.228;7.626;2022-07-29T11:31:20;27.20;75.00
42109;DHT22;27765;51.228;7.626;2022-07-29T11:33:57;27.50;72.30
42109;DHT22;27765;51.228;7.626;2022-07-29T11:36:22;27.90;73.60
42109;DHT22;27765;51.228;7.626;2022-07-29T11:38:49;28.10;72.70
42109;DHT22;27765;51.228;7.626;2022-07-29T11:41:28;28.30;71.60
42109;DHT22;27765;51.228;7.626;2022-07-29T11:43:59;28.80;68.70
42109;DHT22;27765;51.228;7.626;2022-07-29T11:46:45;29.00;68.50
42109;DHT22;27765;51.228;7.626;2022-07-29T11:49:25;29.00;66.10
42109;DHT22;27765;51.228;7.626;2022-07-29T11:51:55;29.20;66.70
42109;DHT22;27765;51.228;7.626;2022-07-29T11:54:25;29.20;65.80
42109;DHT22;27765;51.228;7.626;2022-07-29T11:56:54;29.00;65.00
42109;DHT22;27765;51.228;7.626;2022-07-29T11:59:21;29.10;68.70
42109;DHT22;27765;51.228;7.626;2022-07-29T12:01:58;29.30;66.60
42109;DHT22;27765;51.228;7.626;2022-07-29T12:04:25;29.50;63.70
42109;DHT22;27765;51.228;7.626;2022-07-29T12:06:53;29.40;63.70
42109;DHT22;27765;51.228;7.626;2022-07-29T12:09:20;29.20;63.70
42109;DHT22;27765;51.228;7.626;2022-07-29T12:11:47;29.00;63.20
42109;DHT22;27765;51.228;7.626;2022-07-29T12:14:30;29.20;62.70
42109;DHT22;27765;51.228;7.626;2022-07-29T12:16:58;29.10;63.00
42109;DHT22;27765;51.228;7.626;2022-07-29T12:19:25;29.00;64.20
42109;DHT22;27765;51.228;7.626;2022-07-29T12:21:52;29.10;64.70
42109;DHT22;27765;51.228;7.626;2022-07-29T12:24:19;29.30;67.00
42109;DHT22;27765;51.228;7.626;2022-07-29T12:26:56;29.00;62.00
42109;DHT22;27765;51.228;7.626;2022-07-29T12:29:23;28.70;62.70
42109;DHT22;27765;51.228;7.626;2022-07-29T12:31:53;28.50;65.00
42109;DHT22;27765;51.228;7.626;2022-07-29T12:34:22;28.40;66.20
42109;DHT22;27765;51.228;7.626;2022-07-29T12:36:49;28.80;63.10
42109;DHT22;27765;51.228;7.626;2022-07-29T12:39:16;29.20;61.20
42109;DHT22;27765;51.228;7.626;2022-07-29T12:41:43;29.00;63.00
42109;DHT22;27765;51.228;7.626;2022-07-29T12:44:11;28.90;64.70
42109;DHT22;27765;51.228;7.626;2022-07-29T12:46:37;28.90;64.90
42109;DHT22;27765;51.228;7.626;2022-07-29T12:49:03;28.90;67.40
42109;DHT22;27765;51.228;7.626;2022-07-29T12:51:34;28.90;65.90
42109;DHT22;27765;51.228;7.626;2022-07-29T12:54:15;28.60;65.00
42109;DHT22;27765;51.228;7.626;2022-07-29T12:56:42;28.10;67.00
42109;DHT22;27765;51.228;7.626;2022-07-29T12:59:26;27.90;66.30
42109;DHT22;27765;51.228;7.626;2022-07-29T13:01:52;28.00;71.50
42109;DHT22;27765;51.228;7.626;2022-07-29T13:04:29;28.20;69.90
42109;DHT22;27765;51.228;7.626;2022-07-29T13:07:06;28.60;70.50
42109;DHT22;27765;51.228;7.626;2022-07-29T13:09:51;28.80;69.10
42109;DHT22;27765;51.228;7.626;2022-07-29T13:12:17;28.50;70.40
42109;DHT22;27765;51.228;7.626;2022-07-29T13:14:49;28.60;69.10
42109;DHT22;27765;51.228;7.626;2022-07-29T13:17:23;28.60;70.30
42109;DHT22;27765;51.228;7.626;2022-07-29T13:20:05;28.60;71.60
42109;DHT22;27765;51.228;7.626;2022-07-29T13:22:31;28.60;69.80
42109;DHT22;27765;51.228;7.626;2022-07-29T13:25:00;28.90;69.50
42109;DHT22;27765;51.228;7.626;2022-07-29T13:27:31;28.70;69.70
42109;DHT22;27765;51.228;7.626;2022-07-29T13:29:59;28.50;72.90
42109;DHT22;27765;51.228;7.626;2022-07-29T13:32:27;28.50;69.50
42109;DHT22;27765;51.228;7.626;2022-07-29T13:34:55;28.20;70.70
42109;DHT22;27765;51.228;7.626;2022-07-29T13:37:39;28.20;71.60
42109;DHT22;27765;51.228;7.626;2022-07-29T13:40:07;28.70;72.20
42109;DHT22;27765;51.228;7.626;2022-07-29T13:42:33;28.90;71.20
42109;DHT22;27765;51.228;7.626;2022-07-29T13:45:00;29.50;68.50
42109;DHT22;27765;51.228;7.626;2022-07-29T13:47:27;29.90;68.20
42109;DHT22;27765;51.228;7.626;2022-07-29T13:49:54;29.90;69.20
42109;DHT22;27765;51.228;7.626;2022-07-29T13:52:20;30.40;68.90
42109;DHT22;27765;51.228;7.626;2022-07-29T13:54:46;29.90;68.00
42109;DHT22;27765;51.228;7.626;2022-07-29T13:57:13;29.60;66.50
42109;DHT22;27765;51.228;7.626;2022-07-29T13:59:43;29.40;68.70
42109;DHT22;27765;51.228;7.626;2022-07-29T14:02:10;29.00;69.00
42109;DHT22;27765;51.228;7.626;2022-07-29T14:04:36;28.50;70.00
42109;DHT22;27765;51.228;7.626;2022-07-29T14:07:20;28.20;70.30
42109;DHT22;27765;51.228;7.626;2022-07-29T14:10:07;27.90;69.70
42109;DHT22;27765;51.228;7.626;2022-07-29T14:12:34;27.90;73.40
42109;DHT22;27765;51.228;7.626;2022-07-29T14:15:00;28.00;72.70
42109;DHT22;27765;51.228;7.626;2022-07-29T14:17:26;28.00;71.10
42109;DHT22;27765;51.228;7.626;2022-07-29T14:19:52;27.90;72.50
42109;DHT22;27765;51.228;7.626;2022-07-29T14:22:18;27.70;72.50
42109;DHT22;27765;51.228;7.626;2022-07-29T14:24:45;27.50;74.40
42109;DHT22;27765;51.228;7.626;2022-07-29T14:27:11;27.10;74.90
42109;DHT22;27765;51.228;7.626;2022-07-29T14:29:37;27.00;75.30
42109;DHT22;27765;51.228;7.626;2022-07-29T14:32:05;26.70;76.30
42109;DHT22;27765;51.228;7.626;2022-07-29T14:34:31;26.60;75.50
42109;DHT22;27765;51.228;7.626;2022-07-29T14:37:15;26.60;77.20
42109;DHT22;27765;51.228;7.626;2022-07-29T14:39:59;26.60;77.70
42109;DHT22;27765;51.228;7.626;2022-07-29T14:42:48;26.40;76.20
42109;DHT22;27765;51.228;7.626;2022-07-29T14:45:34;26.40;76.70
42109;DHT22;27765;51.228;7.626;2022-07-29T14:48:20;26.50;76.30
42109;DHT22;27765;51.228;7.626;2022-07-29T14:51:06;26.80;77.10
42109;DHT22;27765;51.228;7.626;2022-07-29T14:53:52;26.90;75.40
42109;DHT22;27765;51.228;7.626;2022-07-29T14:56:38;26.60;76.60
42109;DHT22;27765;51.228;7.626;2022-07-29T14:59:25;26.20;77.90
42109;DHT22;27765;51.228;7.626;2022-07-29T15:02:10;26.00;79.40
42109;DHT22;27765;51.228;7.626;2022-07-29T15:04:56;25.60;79.20
42109;DHT22;27765;51.228;7.626;2022-07-29T15:07:42;25.40;81.90
42109;DHT22;27765;51.228;7.626;2022-07-29T15:10:28;25.20;84.10
42109;DHT22;27765;51.228;7.626;2022-07-29T15:13:14;25.10;83.60
42109;DHT22;27765;51.228;7.626;2022-07-29T15:16:00;25.00;86.00
42109;DHT22;27765;51.228;7.626;2022-07-29T15:18:46;25.00;85.80
42109;DHT22;27765;51.228;7.626;2022-07-29T15:21:32;25.10;86.50
42109;DHT22;27765;51.228;7.626;2022-07-29T15:24:19;25.30;85.10
42109;DHT22;27765;51.228;7.626;2022-07-29T15:27:05;25.60;84.60
42109;DHT22;27765;51.228;7.626;2022-07-29T15:29:51;26.00;85.00
42109;DHT22;27765;51.228;7.626;2022-07-29T15:32:37;26.20;84.40
42109;DHT22;27765;51.228;7.626;2022-07-29T15:35:23;26.30;84.00
42109;DHT22;27765;51.228;7.626;2022-07-29T15:38:09;26.40;82.90
42109;DHT22;27765;51.228;7.626;2022-07-29T15:40:55;26.50;83.50
42109;DHT22;27765;51.228;7.626;2022-07-29T15:43:45;26.40;82.40
42109;DHT22;27765;51.228;7.626;2022-07-29T15:46:33;26.10;83.80
42109;DHT22;27765;51.228;7.626;2022-07-29T15:49:39;25.90;82.10
42109;DHT22;27765;51.228;7.626;2022-07-29T15:52:25;25.40;84.80
42109;DHT22;27765;51.228;7.626;2022-07-29T15:55:11;25.40;84.20
42109;DHT22;27765;51.228;7.626;2022-07-29T15:57:57;25.30;86.10
42109;DHT22;27765;51.228;7.626;2022-07-29T16:00:43;25.00;85.20
42109;DHT22;27765;51.228;7.626;2022-07-29T16:03:29;25.10;87.40
42109;DHT22;27765;51.228;7.626;2022-07-29T16:06:15;24.90;84.20
42109;DHT22;27765;51.228;7.626;2022-07-29T16:09:01;24.90;85.80
42109;DHT22;27765;51.228;7.626;2022-07-29T16:11:47;24.90;84.60
42109;DHT22;27765;51.228;7.626;2022-07-29T16:14:35;24.90;86.80
42109;DHT22;27765;51.228;7.626;2022-07-29T16:17:21;25.00;88.10
42109;DHT22;27765;51.228;7.626;2022-07-29T16:20:07;25.10;86.10
42109;DHT22;27765;51.228;7.626;2022-07-29T16:22:53;25.00;85.30
42109;DHT22;27765;51.228;7.626;2022-07-29T16:25:40;24.80;87.80
42109;DHT22;27765;51.228;7.626;2022-07-29T16:28:27;24.80;88.60
42109;DHT22;27765;51.228;7.626;2022-07-29T16:31:13;24.70;89.30
42109;DHT22;27765;51.228;7.626;2022-07-29T16:33:59;24.70;90.40
42109;DHT22;27765;51.228;7.626;2022-07-29T16:36:46;24.60;89.70
42109;DHT22;27765;51.228;7.626;2022-07-29T16:39:31;24.60;90.70
42109;DHT22;27765;51.228;7.626;2022-07-29T16:42:18;24.50;90.10
42109;DHT22;27765;51.228;7.626;2022-07-29T16:45:04;24.60;90.70
42109;DHT22;27765;51.228;7.626;2022-07-29T16:47:53;24.70;90.70
42109;DHT22;27765;51.228;7.626;2022-07-29T16:50:39;24.70;91.10
42109;DHT22;27765;51.228;7.626;2022-07-29T16:53:25;24.70;90.90
42109;DHT22;27765;51.228;7.626;2022-07-29T16:56:11;24.70;90.80
42109;DHT22;27765;51.228;7.626;2022-07-29T16:58:57;24.70;91.30
42109;DHT22;27765;51.228;7.626;2022-07-29T17:01:43;24.70;90.60
42109;DHT22;27765;51.228;7.626;2022-07-29T17:04:30;24.70;90.80
42109;DHT22;27765;51.228;7.626;2022-07-29T17:07:16;24.70;90.70
42109;DHT22;27765;51.228;7.626;2022-07-29T17:10:02;24.50;91.70
42109;DHT22;27765;51.228;7.626;2022-07-29T17:12:52;24.30;91.60
42109;DHT22;27765;51.228;7.626;2022-07-29T17:15:38;24.20;91.90
42109;DHT22;27765;51.228;7.626;2022-07-29T17:18:24;24.10;91.80
42109;DHT22;27765;51.228;7.626;2022-07-29T17:21:10;24.00;92.00
42109;DHT22;27765;51.228;7.626;2022-07-29T17:23:56;23.70;92.50
42109;DHT22;27765;51.228;7.626;2022-07-29T17:26:43;23.30;93.30